Time;durP1;ratioP1;P1;durP2;ratioP2;P2;SDS_P1;SDS_P2;PMS_P1;PMS_P2;Temp;Humidity;BMP_temperature;BMP_pressure;BME280_temperature;BME280_humidity;BME280_pressure;Samples;Min_cycle;Max_cycle;Signal;HPM_P1;HPM_P2
2022/01/20 00:04:51;;;;;;;47.38;18.33;;;;;;;-2.25;100.00;100955.16;5590259;31;33915;-68
2022/01/20 00:27:56;;;;;;;39.00;19.02;;;;;;;-2.45;100.00;100956.09;5589933;31;34508;-68
2022/01/20 00:31:11;;;;;;;38.65;19.00;;;;;;;-2.43;100.00;100940.44;5590314;31;34488;-69
2022/01/20 00:34:20;;;;;;;41.90;18.23;;;;;;;-2.44;100.00;100938.75;5590227;31;34335;-68
2022/01/20 00:37:28;;;;;;;;;;;;;;;-2.46;100.00;100935.37;5590193;31;34538;-68
2022/01/20 00:40:31;;;;;;;41.08;18.55;;;;;;;-2.49;100.00;100941.56;5590510;31;34889;-68
2022/01/20 00:43:34;;;;;;;36.47;18.75;;;;;;;-2.53;100.00;100953.03;5590493;31;34360;-68
2022/01/20 00:46:36;;;;;;;42.67;17.12;;;;;;;-2.59;100.00;100958.50;5590448;31;33876;-69
2022/01/20 00:49:40;;;;;;;40.03;17.10;;;;;;;-2.71;100.00;100962.47;5590251;31;33836;-68
2022/01/20 00:52:43;;;;;;;44.28;17.42;;;;;;;-2.83;100.00;100957.00;5590054;31;34662;-67
2022/01/20 00:55:46;;;;;;;40.65;17.37;;;;;;;-2.99;100.00;100964.62;5589989;31;34042;-67
2022/01/20 00:58:49;;;;;;;40.97;16.90;;;;;;;-3.12;100.00;100959.16;5590106;31;34595;-68
2022/01/20 01:01:52;;;;;;;36.75;17.08;;;;;;;-3.22;100.00;100967.41;5589914;31;34006;-68
2022/01/20 01:04:55;;;;;;;34.78;14.98;;;;;;;-3.32;100.00;100961.75;5589910;31;34597;-67
2022/01/20 01:07:57;;;;;;;40.72;14.93;;;;;;;-3.41;100.00;100958.72;5589907;31;33898;-67
2022/01/20 01:11:00;;;;;;;35.03;15.07;;;;;;;-3.42;100.00;100977.78;5590063;31;34056;-68
2022/01/20 01:14:05;;;;;;;35.72;14.77;;;;;;;-3.52;100.00;100972.13;5589875;31;34563;-68
2022/01/20 01:20:16;;;;;;;50.85;19.42;;;;;;;-3.28;100.00;100984.06;5589784;31;33795;-68
2022/01/20 01:23:18;;;;;;;48.90;20.95;;;;;;;-2.89;100.00;100988.44;5576236;31;34610;-68
2022/01/20 01:26:25;;;;;;;51.00;20.08;;;;;;;-2.85;100.00;100971.81;5589668;31;33910;-68
2022/01/20 01:32:52;;;;;;;43.67;19.08;;;;;;;-2.64;100.00;100945.72;5589873;31;34557;-69
2022/01/20 01:35:57;;;;;;;42.40;18.80;;;;;;;-2.49;100.00;100940.72;5589694;31;34333;-68
2022/01/20 01:39:00;;;;;;;45.28;19.42;;;;;;;-2.42;100.00;100932.56;5590062;31;34417;-67
2022/01/20 01:42:03;;;;;;;48.50;19.17;;;;;;;-2.34;100.00;100927.03;5575879;31;33784;-67
2022/01/20 01:45:14;;;;;;;36.22;15.50;;;;;;;-2.31;100.00;100922.50;5589651;31;34238;-68
2022/01/20 01:48:17;;;;;;;;;;;;;;;-2.16;100.00;100915.75;5590238;31;34266;-68
2022/01/20 01:51:20;;;;;;;41.53;16.87;;;;;;;-2.06;100.00;100905.72;5588659;31;34838;-68
2022/01/20 01:54:23;;;;;;;36.20;15.98;;;;;;;-1.97;100.00;100902.69;5589519;31;34088;-68
2022/01/20 01:57:27;;;;;;;42.40;17.45;;;;;;;-1.90;100.00;100899.72;5575855;31;34499;-68
2022/01/20 02:00:30;;;;;;;43.17;16.20;;;;;;;-1.83;100.00;100890.69;5589368;31;33915;-68
2022/01/20 02:03:43;;;;;;;42.42;14.48;;;;;;;-1.74;100.00;100886.75;5589462;31;33982;-68
2022/01/20 02:19:54;;;;;;;31.30;14.52;;;;;;;-1.70;100.00;100838.91;5589267;31;34457;-68
2022/01/20 02:22:58;;;;;;;38.47;14.65;;;;;;;-1.78;100.00;100823.66;5589212;31;33989;-68
2022/01/20 02:26:01;;;;;;;39.17;15.25;;;;;;;-1.88;100.00;100811.22;5589247;31;33874;-68
2022/01/20 02:29:04;;;;;;;33.35;14.82;;;;;;;-2.04;100.00;100805.12;5588882;31;34432;-68
2022/01/20 02:32:08;;;;;;;36.47;15.57;;;;;;;-2.14;100.00;100796.97;5589033;31;34517;-68
2022/01/20 02:35:12;;;;;;;36.70;15.95;;;;;;;-2.28;100.00;100802.84;5589438;31;33933;-68
2022/01/20 02:45:01;;;;;;;38.88;16.58;;;;;;;-2.26;100.00;100789.75;5588943;31;34037;-69
2022/01/20 02:48:04;;;;;;;34.95;15.73;;;;;;;-2.23;100.00;100785.25;5588704;31;34224;-68
2022/01/20 02:51:07;;;;;;;40.20;16.12;;;;;;;-2.21;100.00;100786.00;5588765;31;34503;-68
2022/01/20 02:54:10;;;;;;;40.03;16.17;;;;;;;-2.16;100.00;100780.59;5589055;31;33937;-68
2022/01/20 02:57:13;;;;;;;42.72;16.25;;;;;;;-2.20;100.00;100779.91;5588572;31;33970;-68
2022/01/20 03:00:16;;;;;;;34.55;15.00;;;;;;;-2.29;100.00;100762.19;5588769;31;34614;-68
2022/01/20 03:03:19;;;;;;;36.90;14.73;;;;;;;-2.35;100.00;100765.09;5590879;31;35232;-67
2022/01/20 03:06:22;;;;;;;38.85;14.27;;;;;;;-2.31;100.00;100755.37;5591006;31;34657;-67
2022/01/20 03:09:25;;;;;;;43.80;17.23;;;;;;;-2.39;100.00;100754.91;5591000;31;34058;-67
2022/01/20 03:12:27;;;;;;;37.42;16.67;;;;;;;-2.44;100.00;100744.75;5591061;31;33783;-69
2022/01/20 03:15:36;;;;;;;38.72;15.65;;;;;;;-2.52;100.00;100752.09;5591005;31;33826;-68
2022/01/20 03:18:39;;;;;;;33.97;15.50;;;;;;;-2.52;100.00;100746.06;5591308;31;34290;-68
2022/01/20 03:21:43;;;;;;;39.38;15.02;;;;;;;-2.47;100.00;100744.91;5577058;31;34343;-68
2022/01/20 03:24:45;;;;;;;37.00;16.70;;;;;;;-2.48;100.00;100734.59;5577072;31;33935;-68
2022/01/20 03:27:48;;;;;;;34.25;15.25;;;;;;;-2.47;100.00;100737.09;5576923;31;34193;-69
2022/01/20 03:30:51;;;;;;;40.75;15.50;;;;;;;-2.48;100.00;100724.22;5591138;31;33854;-69
2022/01/20 03:33:54;;;;;;;33.25;15.57;;;;;;;-2.51;100.00;100732.13;5590751;31;34264;-68
2022/01/20 03:36:57;;;;;;;39.30;15.48;;;;;;;-2.52;100.00;100730.47;5590794;31;35198;-68
2022/01/20 03:40:01;;;;;;;35.22;15.07;;;;;;;-2.60;100.00;100727.41;5590783;31;34521;-69
2022/01/20 03:43:04;;;;;;;38.15;15.45;;;;;;;-2.65;100.00;100723.28;5590713;31;34570;-68
2022/01/20 03:46:12;;;;;;;36.50;16.15;;;;;;;-2.71;100.00;100715.78;5577278;31;33996;-68
2022/01/20 03:49:36;;;;;;;35.80;14.52;;;;;;;-2.58;100.00;100715.19;5590725;31;33799;-68
2022/01/20 03:52:39;;;;;;;31.12;14.82;;;;;;;-2.71;100.00;100712.38;5590642;31;33948;-68
2022/01/20 03:55:42;;;;;;;33.15;14.20;;;;;;;-2.69;100.00;100710.53;5590638;31;33949;-69
2022/01/20 03:58:46;;;;;;;30.55;14.35;;;;;;;-2.57;100.00;100707.34;5590510;31;34493;-68
2022/01/20 04:01:48;;;;;;;33.65;14.00;;;;;;;-2.49;100.00;100701.75;5590696;31;34493;-69
2022/01/20 04:04:53;;;;;;;36.08;14.00;;;;;;;-2.45;100.00;100705.88;5590879;31;33895;-69
2022/01/20 04:07:56;;;;;;;33.50;14.07;;;;;;;-2.56;100.00;100700.34;5590863;31;33891;-68
2022/01/20 04:11:04;;;;;;;32.83;14.95;;;;;;;-2.47;100.00;100692.13;5576745;31;34472;-68
2022/01/20 04:14:07;;;;;;;48.67;14.90;;;;;;;-2.53;100.00;100698.47;5589812;31;34353;-69
2022/01/20 04:17:15;;;;;;;29.75;14.57;;;;;;;-2.52;100.00;100699.31;5590456;31;33815;-69
2022/01/20 04:20:18;;;;;;;42.40;15.70;;;;;;;-2.49;100.00;100688.75;5576705;31;34580;-69
2022/01/20 04:23:21;;;;;;;34.50;14.68;;;;;;;-2.66;100.00;100690.44;5590396;31;33938;-69
2022/01/20 04:26:24;;;;;;;35.95;14.25;;;;;;;-2.51;100.00;100682.78;5590467;31;34585;-69
2022/01/20 04:29:27;;;;;;;39.15;15.80;;;;;;;-2.40;100.00;100678.75;5590073;31;34598;-68
2022/01/20 04:32:30;;;;;;;38.10;14.63;;;;;;;-2.47;100.00;100679.97;5590584;31;33836;-69
2022/01/20 04:35:33;;;;;;;29.20;13.80;;;;;;;-2.38;100.00;100691.66;5590209;31;33744;-69
2022/01/20 04:38:35;;;;;;;36.28;14.30;;;;;;;-2.48;100.00;100691.28;5590247;31;33953;-69
2022/01/20 04:41:39;;;;;;;35.63;14.40;;;;;;;-2.56;100.00;100697.75;5590149;31;34323;-67
2022/01/20 04:44:54;;;;;;;35.50;14.52;;;;;;;-2.61;100.00;100710.97;5590161;31;33985;-68
2022/01/20 04:48:16;;;;;;;30.10;14.40;;;;;;;-2.69;100.00;100702.75;5590079;31;33967;-68
2022/01/20 04:58:07;;;;;;;34.00;15.05;;;;;;;-2.46;100.00;100707.63;5589986;31;34598;-68
2022/01/20 05:01:10;;;;;;;25.85;13.57;;;;;;;-2.41;100.00;100691.78;5590073;31;34404;-68
2022/01/20 05:04:14;;;;;;;34.85;14.27;;;;;;;-2.48;100.00;100680.06;5589916;31;33851;-68
2022/01/20 05:07:23;;;;;;;35.47;14.27;;;;;;;-2.54;100.00;100689.00;5590061;31;34193;-67
2022/01/20 05:10:29;;;;;;;32.35;15.00;;;;;;;-2.60;100.00;100697.09;5590199;31;33894;-68
2022/01/20 05:13:40;;;;;;;31.73;14.57;;;;;;;-2.55;100.00;100700.28;5590067;31;34464;-68
2022/01/20 05:16:42;;;;;;;;;;;;;;;-2.72;100.00;100698.56;5590121;31;33991;-68
2022/01/20 05:19:45;;;;;;;42.70;17.30;;;;;;;-2.78;100.00;100688.47;5589774;31;34623;-68
2022/01/20 05:22:48;;;;;;;39.47;17.77;;;;;;;-2.71;100.00;100694.22;5589746;31;34546;-68
2022/01/20 05:25:52;;;;;;;36.10;16.85;;;;;;;-2.62;100.00;100690.31;5589770;31;33833;-69
2022/01/20 05:28:55;;;;;;;31.60;14.93;;;;;;;-2.64;100.00;100699.00;5589494;31;33864;-68
2022/01/20 05:31:58;;;;;;;39.50;15.55;;;;;;;-2.56;100.00;100709.00;5589738;31;33893;-68
2022/01/20 05:35:01;;;;;;;35.05;14.93;;;;;;;-2.58;100.00;100699.62;5590047;31;35149;-69
2022/01/20 05:38:06;;;;;;;41.08;15.23;;;;;;;-2.51;100.00;100693.19;5589672;31;33886;-69
2022/01/20 05:41:10;;;;;;;41.03;15.60;;;;;;;-2.77;100.00;100686.72;5589674;31;34229;-68
2022/01/20 05:44:13;;;;;;;38.63;16.15;;;;;;;-2.75;100.00;100672.72;5590009;31;33917;-68
2022/01/20 05:47:26;;;;;;;33.90;15.45;;;;;;;-2.61;100.00;100684.19;5589461;31;34182;-68
2022/01/20 05:50:31;;;;;;;31.73;16.37;;;;;;;-2.55;100.00;100681.28;5589811;31;34685;-67
2022/01/20 05:53:34;;;;;;;40.58;16.67;;;;;;;-2.56;100.00;100687.38;5589412;31;33901;-67
2022/01/20 05:56:36;;;;;;;37.55;16.20;;;;;;;-2.76;100.00;100683.19;5589431;31;33809;-68
2022/01/20 05:59:39;;;;;;;35.10;14.60;;;;;;;-2.86;100.00;100672.44;5575408;31;33820;-70
2022/01/20 06:06:10;;;;;;;36.85;16.45;;;;;;;-3.08;100.00;100676.97;5589132;31;33936;-68
2022/01/20 06:09:13;;;;;;;33.63;15.15;;;;;;;-2.88;100.00;100666.47;5589304;31;33893;-67
2022/01/20 06:12:16;;;;;;;38.35;16.85;;;;;;;-2.94;100.00;100673.72;5575433;31;33809;-68
2022/01/20 06:15:19;;;;;;;37.83;16.17;;;;;;;-2.81;100.00;100664.41;5589227;31;34273;-68
2022/01/20 06:18:22;;;;;;;38.33;15.82;;;;;;;-2.64;100.00;100662.66;5575791;31;33992;-69
2022/01/20 06:21:25;;;;;;;34.10;15.82;;;;;;;-2.51;100.00;100664.59;5588787;31;33872;-68
2022/01/20 06:24:28;;;;;;;34.35;15.98;;;;;;;-2.39;100.00;100654.44;5588970;31;33851;-68
2022/01/20 06:27:32;;;;;;;40.30;16.83;;;;;;;-2.22;100.00;100667.37;5588366;31;34632;-69
2022/01/20 06:30:36;;;;;;;39.40;16.80;;;;;;;-2.10;100.00;100668.53;5574887;31;33859;-68
2022/01/20 06:33:38;;;;;;;38.22;15.82;;;;;;;-1.99;100.00;100661.00;5588715;31;34197;-69
2022/01/20 06:36:42;;;;;;;36.13;14.95;;;;;;;-1.87;100.00;100669.88;5588153;31;34142;-70
2022/01/20 06:39:45;;;;;;;34.03;15.60;;;;;;;-1.82;100.00;100678.28;5589053;31;34173;-69
2022/01/20 06:42:49;;;;;;;37.35;16.27;;;;;;;-1.70;100.00;100682.00;5588452;31;33991;-69
2022/01/20 06:45:51;;;;;;;36.65;15.20;;;;;;;-1.64;100.00;100684.25;5588429;31;33921;-69
2022/01/20 06:48:55;;;;;;;37.10;15.93;;;;;;;-1.49;100.00;100691.22;5588523;31;33975;-69
2022/01/20 06:51:58;;;;;;;28.05;13.93;;;;;;;-1.42;100.00;100683.00;5588743;31;34757;-68
2022/01/20 06:55:07;;;;;;;31.17;14.00;;;;;;;-1.30;100.00;100684.06;5588427;31;34649;-67
2022/01/20 06:58:10;;;;;;;33.60;13.93;;;;;;;-1.04;100.00;100687.84;5574774;31;34431;-69
2022/01/20 07:01:14;;;;;;;30.20;14.48;;;;;;;-0.82;100.00;100672.66;5588409;31;35135;-68
2022/01/20 07:04:16;;;;;;;32.78;14.00;;;;;;;-0.62;100.00;100671.50;5587472;31;34596;-69
2022/01/20 07:07:19;;;;;;;29.67;13.40;;;;;;;-0.39;100.00;100663.19;5587792;31;34000;-68
2022/01/20 07:10:28;;;;;;;24.40;12.73;;;;;;;-0.33;100.00;100664.56;5588491;31;34007;-68
2022/01/20 07:13:32;;;;;;;27.48;13.60;;;;;;;-0.20;100.00;100663.75;5574525;31;34137;-68
2022/01/20 07:16:35;;;;;;;30.60;14.10;;;;;;;-0.21;100.00;100658.63;5574604;31;34116;-68
2022/01/20 07:19:39;;;;;;;30.08;14.90;;;;;;;-0.11;100.00;100657.97;5574610;31;35213;-68
2022/01/20 07:22:42;;;;;;;36.78;14.32;;;;;;;0.16;97.58;100646.78;5587702;31;34000;-67
2022/01/20 07:25:45;;;;;;;36.38;14.38;;;;;;;0.12;97.02;100643.53;5588097;31;34611;-68
2022/01/20 07:28:48;;;;;;;31.92;14.27;;;;;;;0.02;97.07;100638.97;5574224;31;34189;-67
2022/01/20 07:31:51;;;;;;;31.30;14.20;;;;;;;0.02;96.61;100644.19;5587510;31;33899;-67
2022/01/20 07:34:54;;;;;;;39.05;15.98;;;;;;;-0.06;97.00;100642.06;5587195;31;33858;-69
2022/01/20 07:37:57;;;;;;;36.20;15.90;;;;;;;-0.13;97.18;100635.53;5587459;31;33917;-68
2022/01/20 07:41:05;;;;;;;31.70;14.75;;;;;;;-0.20;97.30;100629.87;5587533;31;34383;-67
2022/01/20 07:44:09;;;;;;;32.75;15.50;;;;;;;-0.02;96.98;100623.50;5574252;31;33940;-67
2022/01/20 07:47:13;;;;;;;36.35;16.80;;;;;;;-0.10;97.35;100625.72;5588034;31;33965;-67
2022/01/20 07:50:16;;;;;;;36.50;16.23;;;;;;;-0.07;96.89;100635.16;5590229;31;34525;-67
2022/01/20 07:53:22;;;;;;;40.67;15.75;;;;;;;0.02;96.13;100633.75;5590410;31;33923;-68
2022/01/20 07:56:33;;;;;;;33.83;15.30;;;;;;;0.02;96.65;100618.94;5590273;31;33966;-67
2022/01/20 07:59:36;;;;;;;37.15;16.40;;;;;;;0.21;95.68;100622.06;5576770;31;34543;-68
2022/01/20 08:02:39;;;;;;;35.00;15.27;;;;;;;0.41;95.30;100628.66;5590113;31;34753;-68
2022/01/20 08:05:42;;;;;;;42.42;16.42;;;;;;;0.61;93.69;100617.78;5590700;31;34526;-67
2022/01/20 08:08:46;;;;;;;33.63;15.80;;;;;;;0.75;92.24;100622.94;5590541;31;34515;-67
2022/01/20 08:11:50;;;;;;;35.40;15.68;;;;;;;1.06;92.26;100620.94;5590199;31;35063;-68
2022/01/20 08:14:56;;;;;;;34.75;15.05;;;;;;;1.48;89.83;100631.13;5590315;31;35227;-68
2022/01/20 08:18:00;;;;;;;35.75;16.05;;;;;;;1.37;89.23;100625.78;5576754;31;34105;-68
2022/01/20 08:21:04;;;;;;;32.67;14.30;;;;;;;1.75;87.51;100625.78;5590490;31;34216;-68
2022/01/20 08:24:07;;;;;;;35.97;14.48;;;;;;;1.98;88.59;100629.44;5576795;31;34393;-69
2022/01/20 08:27:12;;;;;;;37.10;15.65;;;;;;;1.95;87.22;100627.84;5590245;31;33888;-69
2022/01/20 08:30:18;;;;;;;34.78;15.18;;;;;;;1.51;88.06;100624.84;5589864;31;33967;-68
2022/01/20 08:33:21;;;;;;;38.67;15.27;;;;;;;1.71;88.34;100630.41;5590226;31;33798;-68
2022/01/20 08:36:24;;;;;;;32.70;14.82;;;;;;;1.78;87.88;100622.97;5590022;31;34165;-68
2022/01/20 08:42:33;;;;;;;36.13;15.00;;;;;;;1.95;88.66;100627.84;5590051;31;35136;-68
2022/01/20 08:45:38;;;;;;;31.55;14.87;;;;;;;2.03;87.32;100640.44;5589875;31;34642;-68
2022/01/20 08:48:41;;;;;;;31.75;14.75;;;;;;;1.78;88.46;100622.12;5590357;31;34149;-69
2022/01/20 08:51:45;;;;;;;34.13;15.80;;;;;;;1.69;88.24;100615.78;5590394;31;34048;-69
2022/01/20 08:54:50;;;;;;;41.60;16.05;;;;;;;2.00;87.05;100611.84;5589971;31;34507;-69
2022/01/20 08:57:58;;;;;;;37.03;16.12;;;;;;;1.88;87.72;100613.56;5589862;31;35162;-68
2022/01/20 09:01:03;;;;;;;37.58;17.23;;;;;;;2.46;85.36;100623.34;5590187;31;34011;-69
2022/01/20 09:04:07;;;;;;;42.08;15.85;;;;;;;2.50;85.02;100634.44;5589704;31;33983;-68
2022/01/20 09:07:10;;;;;;;31.50;15.43;;;;;;;2.73;84.37;100627.53;5589277;31;33993;-69
2022/01/20 09:10:18;;;;;;;26.95;11.10;;;;;;;2.91;82.66;100632.25;5575955;31;33816;-68
2022/01/20 09:16:45;;;;;;;17.60;8.10;;;;;;;3.17;80.73;100632.97;5589680;31;33838;-68
2022/01/20 09:19:49;;;;;;;15.07;7.47;;;;;;;3.56;78.19;100630.91;5589662;31;33923;-68
2022/01/20 09:22:54;;;;;;;14.45;7.50;;;;;;;3.74;76.93;100635.56;5589701;31;34585;-67
2022/01/20 09:25:57;;;;;;;18.83;7.65;;;;;;;3.81;77.19;100633.31;5590048;31;33891;-68
2022/01/20 09:29:00;;;;;;;14.57;7.10;;;;;;;3.85;77.31;100632.97;5589425;31;33808;-67
2022/01/20 09:32:06;;;;;;;12.57;6.32;;;;;;;3.82;77.40;100635.84;5589929;31;33853;-68
2022/01/20 09:35:09;;;;;;;15.02;7.50;;;;;;;3.75;77.93;100626.75;5589470;31;33958;-68
2022/01/20 09:38:12;;;;;;;15.35;7.68;;;;;;;3.68;78.39;100624.72;5575928;31;33921;-68
2022/01/20 09:41:16;;;;;;;13.38;7.47;;;;;;;3.66;79.64;100624.84;5589513;31;34561;-67
2022/01/20 09:44:19;;;;;;;14.45;6.90;;;;;;;3.68;79.70;100625.53;5589167;31;33921;-68
2022/01/20 09:47:22;;;;;;;15.65;7.05;;;;;;;3.65;80.31;100622.31;5589525;31;34016;-68
2022/01/20 09:50:26;;;;;;;15.00;7.03;;;;;;;3.63;80.88;100626.87;5589467;31;34007;-68
2022/01/20 09:53:31;;;;;;;12.25;6.80;;;;;;;3.63;81.88;100630.31;5589673;31;34198;-68
2022/01/20 09:56:36;;;;;;;13.27;7.30;;;;;;;3.50;83.22;100622.53;5589134;31;34560;-68
2022/01/20 09:59:38;;;;;;;11.90;7.15;;;;;;;3.50;84.44;100633.03;5589332;31;33895;-67
2022/01/20 10:03:10;;;;;;;16.95;7.60;;;;;;;3.40;87.42;100628.59;5589372;31;33843;-68
2022/01/20 10:06:14;;;;;;;16.17;7.20;;;;;;;3.39;88.40;100625.12;5589327;31;33956;-68
2022/01/20 10:09:37;;;;;;;15.50;6.78;;;;;;;3.24;91.17;100610.59;5589344;31;34257;-68
2022/01/20 10:12:41;;;;;;;15.35;6.93;;;;;;;3.46;92.04;100615.88;5589200;31;34136;-69
2022/01/20 10:15:59;;;;;;;11.43;5.85;;;;;;;3.57;93.25;100614.22;5589677;31;33926;-68
2022/01/20 10:19:05;;;;;;;12.23;6.20;;;;;;;3.57;95.45;100604.56;5589188;31;33861;-68
2022/01/20 10:22:15;;;;;;;12.27;6.57;;;;;;;3.26;98.66;100592.94;5588990;31;34651;-68
2022/01/20 10:25:19;;;;;;;11.02;6.20;;;;;;;3.22;100.00;100590.66;5575555;31;33912;-69
2022/01/20 10:28:22;;;;;;;13.95;6.65;;;;;;;3.17;100.00;100591.00;5584182;31;156336;-69
2022/01/20 10:31:46;;;;;;;10.32;5.47;;;;;;;3.37;100.00;100587.72;5589004;31;34446;-68
2022/01/20 10:35:04;;;;;;;9.93;5.95;;;;;;;3.32;100.00;100586.41;5575525;31;34705;-70
2022/01/20 10:38:14;;;;;;;11.80;5.72;;;;;;;3.21;100.00;100571.47;5589399;31;33804;-68
2022/01/20 10:41:37;;;;;;;10.45;4.87;;;;;;;3.29;100.00;100571.72;5578473;31;34482;-67
2022/01/20 10:45:03;;;;;;;9.00;4.60;;;;;;;3.38;100.00;100575.44;5592371;31;34244;-67
2022/01/20 10:48:19;;;;;;;7.97;4.30;;;;;;;3.26;100.00;100565.87;5590094;31;34415;-69
2022/01/20 10:51:23;;;;;;;8.95;4.68;;;;;;;3.14;100.00;100551.09;5594780;31;34377;-67
2022/01/20 10:54:50;;;;;;;8.23;4.00;;;;;;;3.02;100.00;100551.06;5589956;31;34244;-69
2022/01/20 10:57:56;;;;;;;8.88;4.22;;;;;;;3.14;100.00;100538.81;5588842;31;34243;-69
2022/01/20 11:01:03;;;;;;;7.40;4.05;;;;;;;3.10;100.00;100533.94;5589033;31;33841;-69
2022/01/20 11:04:08;;;;;;;7.10;3.70;;;;;;;3.13;100.00;100536.31;5588724;31;33937;-68
2022/01/20 11:07:11;;;;;;;8.68;3.97;;;;;;;3.25;100.00;100532.75;5588745;31;33493;-67
2022/01/20 11:10:17;;;;;;;7.28;4.32;;;;;;;3.45;100.00;100519.78;5575236;31;33934;-70
2022/01/20 11:13:20;;;;;;;6.15;3.87;;;;;;;3.57;100.00;100502.25;5588494;31;33910;-67
2022/01/20 11:16:24;;;;;;;7.35;3.90;;;;;;;3.41;100.00;100500.00;5588203;31;34073;-68
2022/01/20 11:19:31;;;;;;;7.20;3.85;;;;;;;3.50;100.00;100496.66;5588170;31;34283;-68
2022/01/20 11:22:34;;;;;;;5.57;3.78;;;;;;;3.48;100.00;100497.75;5589806;31;35229;-68
2022/01/20 11:25:41;;;;;;;6.80;3.83;;;;;;;3.59;100.00;100504.75;5590964;31;33820;-68
2022/01/20 11:28:59;;;;;;;7.30;4.20;;;;;;;3.59;99.46;100504.75;5576462;31;33985;-68
2022/01/20 11:32:25;;;;;;;7.57;3.97;;;;;;;3.58;99.53;100495.22;5590727;31;34498;-68
2022/01/20 11:35:46;;;;;;;7.62;3.75;;;;;;;3.79;98.90;100489.09;5590688;31;34270;-69
2022/01/20 11:38:50;;;;;;;7.45;3.83;;;;;;;3.68;96.71;100483.06;5590502;31;34509;-68
2022/01/20 11:41:53;;;;;;;5.57;3.55;;;;;;;3.65;97.85;100471.00;5590846;31;33940;-67
2022/01/20 11:44:56;;;;;;;9.27;4.32;;;;;;;3.73;96.78;100462.50;5590476;31;33955;-68
2022/01/20 11:48:11;;;;;;;8.82;4.25;;;;;;;3.83;95.70;100459.03;5590663;31;34279;-68
2022/01/20 11:51:14;;;;;;;8.50;4.40;;;;;;;3.80;95.85;100451.41;5590548;31;33806;-68
2022/01/20 11:54:23;;;;;;;5.85;3.67;;;;;;;3.84;95.45;100439.72;5576704;31;34575;-68
2022/01/20 11:57:30;;;;;;;6.50;4.07;;;;;;;4.04;94.84;100442.53;5590599;31;33919;-70
2022/01/20 12:00:32;;;;;;;5.60;3.42;;;;;;;3.96;93.02;100429.19;5590825;31;34600;-68
2022/01/20 12:03:48;;;;;;;7.43;3.70;;;;;;;4.00;93.20;100431.44;5590435;31;33955;-68
2022/01/20 12:06:52;;;;;;;10.30;4.40;;;;;;;4.10;92.88;100428.91;5590883;31;33828;-68
2022/01/20 12:10:08;;;;;;;7.43;3.72;;;;;;;4.11;92.10;100422.69;5590519;31;33925;-67
2022/01/20 12:13:13;;;;;;;5.65;3.33;;;;;;;4.16;91.82;100416.13;5590411;31;34051;-69
2022/01/20 12:16:21;;;;;;;7.85;4.00;;;;;;;4.15;90.03;100403.94;5591223;31;35121;-68
2022/01/20 12:19:25;;;;;;;6.40;3.85;;;;;;;4.29;89.90;100405.44;5591215;31;34168;-67
2022/01/20 12:22:28;;;;;;;5.80;3.60;;;;;;;4.46;88.74;100402.22;5590317;31;33921;-69
2022/01/20 12:25:33;;;;;;;8.52;3.97;;;;;;;4.43;88.00;100405.09;5590601;31;34599;-69
2022/01/20 12:28:36;;;;;;;6.80;4.00;;;;;;;4.65;86.99;100402.34;5590232;31;33988;-68
2022/01/20 12:31:54;;;;;;;9.13;3.72;;;;;;;4.59;86.77;100404.66;5590181;31;33948;-68
2022/01/20 12:35:03;;;;;;;7.70;3.60;;;;;;;4.67;86.08;100407.47;5589691;31;34440;-69
2022/01/20 12:38:39;;;;;;;6.20;4.03;;;;;;;5.07;83.93;100389.97;5576554;31;34328;-69
2022/01/20 12:41:41;;;;;;;8.40;3.90;;;;;;;5.19;82.36;100388.06;5575626;31;33826;-69
2022/01/20 12:45:55;;;;;;;6.28;3.87;;;;;;;5.58;80.38;100395.09;5590011;31;34528;-69
2022/01/20 12:48:15;;;;;;;8.88;4.20;;;;;;;5.79;78.59;100383.63;5588232;31;34044;-69
2022/01/20 12:51:18;;;;;;;6.20;4.10;;;;;;;5.31;80.21;100371.22;5589877;31;33816;-69
2022/01/20 12:54:27;;;;;;;6.37;3.58;;;;;;;5.50;79.22;100359.91;5589928;31;34562;-69
2022/01/20 12:57:29;;;;;;;11.12;4.07;;;;;;;5.20;80.91;100361.63;5576508;31;34040;-67
2022/01/20 13:00:33;;;;;;;10.75;4.12;;;;;;;5.50;79.69;100360.75;5590088;31;34325;-69
2022/01/20 13:03:40;;;;;;;13.40;4.20;;;;;;;5.21;79.71;100362.47;5589876;31;34624;-69
2022/01/20 13:06:51;;;;;;;8.70;4.25;;;;;;;4.99;81.04;100349.50;5589624;31;33960;-68
2022/01/20 13:10:06;;;;;;;8.07;3.53;;;;;;;4.83;81.21;100352.66;5589812;31;33958;-68
2022/01/20 13:13:18;;;;;;;10.70;3.78;;;;;;;5.01;80.60;100352.84;5590043;31;33528;-69
2022/01/20 13:16:21;;;;;;;6.12;3.60;;;;;;;5.05;81.17;100354.25;5589873;31;34553;-70
2022/01/20 13:19:46;;;;;;;8.50;3.50;;;;;;;5.09;80.04;100363.53;5589773;31;33866;-68
2022/01/20 13:23:09;;;;;;;7.12;3.22;;;;;;;5.03;80.30;100354.41;5589884;31;35261;-69
2022/01/20 13:26:12;;;;;;;5.37;3.20;;;;;;;4.90;79.49;100332.75;5589711;31;34294;-69
2022/01/20 13:29:15;;;;;;;5.80;3.55;;;;;;;4.82;79.37;100315.03;5589735;31;33900;-68
2022/01/20 13:32:19;;;;;;;7.50;3.42;;;;;;;4.77;79.60;100324.25;5589707;31;33813;-69
2022/01/20 13:35:22;;;;;;;6.82;3.47;;;;;;;4.87;79.21;100296.22;5590184;31;34633;-69
2022/01/20 13:38:38;;;;;;;6.12;3.10;;;;;;;4.95;77.75;100299.00;5589770;31;35074;-69
2022/01/20 13:41:42;;;;;;;6.47;3.47;;;;;;;5.13;77.69;100307.91;5589229;31;34187;-68
2022/01/20 13:45:15;;;;;;;6.78;3.28;;;;;;;5.29;75.46;100303.94;5588449;31;33812;-69
2022/01/20 13:48:29;;;;;;;4.97;2.92;;;;;;;5.27;76.24;100292.72;5589280;31;34295;-68
2022/01/20 13:51:32;;;;;;;5.87;2.60;;;;;;;5.07;74.74;100281.34;5589240;31;33922;-68
2022/01/20 13:54:40;;;;;;;3.85;2.62;;;;;;;4.94;73.62;100271.03;5589776;31;35061;-67
2022/01/20 13:58:04;;;;;;;4.65;2.85;;;;;;;5.01;73.76;100295.00;5577816;31;35107;-68
2022/01/20 14:01:09;;;;;;;5.62;2.50;;;;;;;4.93;73.46;100303.59;5589801;31;34568;-69
2022/01/20 14:04:14;;;;;;;6.43;2.67;;;;;;;4.87;73.12;100296.22;5589545;31;34521;-68
2022/01/20 14:07:17;;;;;;;4.80;2.42;;;;;;;4.84;73.61;100295.66;5589344;31;34483;-68
2022/01/20 14:10:21;;;;;;;3.50;2.22;;;;;;;4.80;74.07;100297.72;5589411;31;35147;-68
2022/01/20 14:13:25;;;;;;;8.05;2.60;;;;;;;4.65;74.30;100284.09;5589333;31;33966;-68
2022/01/20 14:16:32;;;;;;;5.15;2.58;;;;;;;4.66;73.74;100288.37;5589159;31;34022;-68
2022/01/20 14:19:40;;;;;;;4.50;2.47;;;;;;;4.62;72.96;100287.00;5588983;31;34774;-67
2022/01/20 14:22:44;;;;;;;5.22;2.55;;;;;;;4.56;73.12;100278.81;5575253;31;33931;-67
2022/01/20 14:25:48;;;;;;;7.35;2.90;;;;;;;4.54;73.67;100268.44;5588815;31;34024;-68
2022/01/20 14:28:51;;;;;;;3.95;2.50;;;;;;;4.46;74.85;100257.75;5589097;31;35191;-67
2022/01/20 14:31:53;;;;;;;5.95;3.40;;;;;;;4.41;75.36;100256.47;5575065;31;34708;-68
2022/01/20 14:34:56;;;;;;;8.18;2.90;;;;;;;4.32;76.49;100261.56;5574768;31;34015;-68
2022/01/20 14:38:00;;;;;;;7.78;3.30;;;;;;;4.25;76.38;100257.81;5589029;31;34531;-68
2022/01/20 14:41:03;;;;;;;5.70;2.58;;;;;;;4.23;76.33;100262.34;5588544;31;35342;-69
2022/01/20 14:44:06;;;;;;;5.57;2.87;;;;;;;4.20;75.54;100257.37;5588664;31;33905;-69
2022/01/20 14:47:10;;;;;;;6.60;3.20;;;;;;;4.16;75.91;100239.38;5575087;31;34593;-67
2022/01/20 14:50:13;;;;;;;6.97;2.95;;;;;;;4.21;75.51;100238.00;5588707;31;33989;-68
2022/01/20 14:53:16;;;;;;;5.57;3.05;;;;;;;4.25;75.54;100238.59;5588866;31;33987;-67
2022/01/20 14:56:19;;;;;;;6.37;3.05;;;;;;;4.23;75.79;100238.72;5575155;31;34323;-68
2022/01/20 14:59:25;;;;;;;6.12;3.10;;;;;;;4.20;75.60;100231.09;5590923;31;34057;-67
2022/01/20 15:02:28;;;;;;;6.07;3.03;;;;;;;4.06;76.09;100217.50;5577077;31;34679;-67
2022/01/20 15:05:32;;;;;;;5.12;2.95;;;;;;;4.21;74.35;100203.88;5590706;31;33916;-67
2022/01/20 15:08:35;;;;;;;6.15;2.92;;;;;;;4.23;74.17;100222.97;5590854;31;34631;-67
2022/01/20 15:11:38;;;;;;;5.90;3.00;;;;;;;4.19;74.24;100231.22;5590797;31;34087;-68
2022/01/20 15:14:41;;;;;;;8.82;3.20;;;;;;;4.19;73.99;100228.59;5590825;31;34033;-67
2022/01/20 15:17:44;;;;;;;4.30;2.53;;;;;;;4.17;73.94;100233.97;5590493;31;34305;-68
2022/01/20 15:20:47;;;;;;;5.60;2.62;;;;;;;4.19;73.63;100220.72;5590376;31;34657;-67